sensor_id;sensor_type;location;lat;lon;timestamp;temperature;humidity
9371;DHT22;4725;48.384;8.984;2023-11-19T00:00:06;8.20;99.90
9371;DHT22;4725;48.384;8.984;2023-11-19T00:02:38;8.20;99.90
9371;DHT22;4725;48.384;8.984;2023-11-19T00:05:05;8.20;99.90
9371;DHT22;4725;48.384;8.984;2023-11-19T00:07:34;8.20;99.90
9371;DHT22;4725;48.384;8.984;2023-11-19T00:10:01;8.30;99.90
9371;DHT22;4725;48.384;8.984;2023-11-19T00:12:35;8.30;99.90
9371;DHT22;4725;48.384;8.984;2023-11-19T00:15:02;8.30;99.90
9371;DHT22;4725;48.384;8.984;2023-11-19T00:17:29;8.20;99.90
9371;DHT22;4725;48.384;8.984;2023-11-19T00:19:57;8.20;99.90
9371;DHT22;4725;48.384;8.984;2023-11-19T00:22:24;8.30;99.90
9371;DHT22;4725;48.384;8.984;2023-11-19T00:24:51;8.20;99.90
9371;DHT22;4725;48.384;8.984;2023-11-19T00:27:18;8.20;99.90
9371;DHT22;4725;48.384;8.984;2023-11-19T00:29:45;8.20;99.90
9371;DHT22;4725;48.384;8.984;2023-11-19T00:32:12;8.20;99.90
9371;DHT22;4725;48.384;8.984;2023-11-19T00:34:38;8.30;99.90
9371;DHT22;4725;48.384;8.984;2023-11-19T00:37:07;8.20;99.90
9371;DHT22;4725;48.384;8.984;2023-11-19T00:39:34;8.30;99.90
9371;DHT22;4725;48.384;8.984;2023-11-19T00:42:01;8.30;99.90
9371;DHT22;4725;48.384;8.984;2023-11-19T00:44:28;8.40;99.90
9371;DHT22;4725;48.384;8.984;2023-11-19T00:46:54;8.50;99.90
9371;DHT22;4725;48.384;8.984;2023-11-19T00:49:21;8.50;99.90
9371;DHT22;4725;48.384;8.984;2023-11-19T00:51:48;8.60;99.90
9371;DHT22;4725;48.384;8.984;2023-11-19T00:54:17;8.60;99.90
9371;DHT22;4725;48.384;8.984;2023-11-19T00:56:43;8.50;99.90
9371;DHT22;4725;48.384;8.984;2023-11-19T00:59:11;8.60;99.90
9371;DHT22;4725;48.384;8.984;2023-11-19T01:01:39;8.60;99.90
9371;DHT22;4725;48.384;8.984;2023-11-19T01:04:06;8.50;99.90
9371;DHT22;4725;48.384;8.984;2023-11-19T01:06:34;8.50;99.90
9371;DHT22;4725;48.384;8.984;2023-11-19T01:09:01;8.60;99.90
9371;DHT22;4725;48.384;8.984;2023-11-19T01:11:29;8.70;99.90
9371;DHT22;4725;48.384;8.984;2023-11-19T01:13:56;8.70;99.90
9371;DHT22;4725;48.384;8.984;2023-11-19T01:16:23;8.70;99.90
9371;DHT22;4725;48.384;8.984;2023-11-19T01:18:50;8.70;99.90
9371;DHT22;4725;48.384;8.984;2023-11-19T01:21:16;8.70;99.90
9371;DHT22;4725;48.384;8.984;2023-11-19T01:23:43;8.80;99.90
9371;DHT22;4725;48.384;8.984;2023-11-19T01:26:11;8.80;99.90
9371;DHT22;4725;48.384;8.984;2023-11-19T01:28:40;8.70;99.90
9371;DHT22;4725;48.384;8.984;2023-11-19T01:31:10;8.70;99.90
9371;DHT22;4725;48.384;8.984;2023-11-19T01:33:38;8.70;99.90
9371;DHT22;4725;48.384;8.984;2023-11-19T01:36:06;8.70;99.90
9371;DHT22;4725;48.384;8.984;2023-11-19T01:38:33;8.60;99.90
9371;DHT22;4725;48.384;8.984;2023-11-19T01:41:00;8.70;99.90
9371;DHT22;4725;48.384;8.984;2023-11-19T01:43:36;8.70;99.90
9371;DHT22;4725;48.384;8.984;2023-11-19T01:46:05;8.70;99.90
9371;DHT22;4725;48.384;8.984;2023-11-19T01:48:33;8.70;99.90
9371;DHT22;4725;48.384;8.984;2023-11-19T01:51:01;8.80;99.90
9371;DHT22;4725;48.384;8.984;2023-11-19T01:53:30;8.80;99.90
9371;DHT22;4725;48.384;8.984;2023-11-19T01:55:57;8.80;99.90
9371;DHT22;4725;48.384;8.984;2023-11-19T01:58:25;8.80;99.90
9371;DHT22;4725;48.384;8.984;2023-11-19T02:00:51;8.80;99.90
9371;DHT22;4725;48.384;8.984;2023-11-19T02:03:20;8.80;99.90
9371;DHT22;4725;48.384;8.984;2023-11-19T02:05:48;8.90;99.90
9371;DHT22;4725;48.384;8.984;2023-11-19T02:08:16;8.80;99.90
9371;DHT22;4725;48.384;8.984;2023-11-19T02:10:43;8.90;99.90
9371;DHT22;4725;48.384;8.984;2023-11-19T02:13:10;8.90;99.90
9371;DHT22;4725;48.384;8.984;2023-11-19T02:15:40;9.00;99.90
9371;DHT22;4725;48.384;8.984;2023-11-19T02:18:19;9.00;99.90
9371;DHT22;4725;48.384;8.984;2023-11-19T02:20:47;9.00;99.90
9371;DHT22;4725;48.384;8.984;2023-11-19T02:23:15;9.00;99.90
9371;DHT22;4725;48.384;8.984;2023-11-19T02:25:43;9.00;99.90
9371;DHT22;4725;48.384;8.984;2023-11-19T02:28:17;9.00;99.90
9371;DHT22;4725;48.384;8.984;2023-11-19T02:30:44;9.00;99.90
9371;DHT22;4725;48.384;8.984;2023-11-19T02:33:11;9.00;99.90
9371;DHT22;4725;48.384;8.984;2023-11-19T02:35:38;8.90;99.90
9371;DHT22;4725;48.384;8.984;2023-11-19T02:38:06;8.90;99.90
9371;DHT22;4725;48.384;8.984;2023-11-19T02:40:33;9.00;99.90
9371;DHT22;4725;48.384;8.984;2023-11-19T02:43:00;9.00;99.90
9371;DHT22;4725;48.384;8.984;2023-11-19T02:45:29;9.00;99.90
9371;DHT22;4725;48.384;8.984;2023-11-19T02:47:56;9.00;99.90
9371;DHT22;4725;48.384;8.984;2023-11-19T02:50:23;9.00;99.90
9371;DHT22;4725;48.384;8.984;2023-11-19T02:52:53;9.00;99.90
9371;DHT22;4725;48.384;8.984;2023-11-19T02:55:22;9.00;99.90
9371;DHT22;4725;48.384;8.984;2023-11-19T02:57:49;9.00;99.90
9371;DHT22;4725;48.384;8.984;2023-11-19T03:00:19;9.00;99.90
9371;DHT22;4725;48.384;8.984;2023-11-19T03:02:51;9.10;99.90
9371;DHT22;4725;48.384;8.984;2023-11-19T03:05:25;9.00;99.90
9371;DHT22;4725;48.384;8.984;2023-11-19T03:07:56;9.00;99.90
9371;DHT22;4725;48.384;8.984;2023-11-19T03:10:23;9.10;99.90
9371;DHT22;4725;48.384;8.984;2023-11-19T03:12:50;9.00;99.90
9371;DHT22;4725;48.384;8.984;2023-11-19T03:15:17;9.00;99.90
9371;DHT22;4725;48.384;8.984;2023-11-19T03:17:46;9.10;99.90
9371;DHT22;4725;48.384;8.984;2023-11-19T03:20:15;9.10;99.90
9371;DHT22;4725;48.384;8.984;2023-11-19T03:22:42;9.10;99.90
9371;DHT22;4725;48.384;8.984;2023-11-19T03:25:09;9.10;99.90
9371;DHT22;4725;48.384;8.984;2023-11-19T03:27:37;9.10;99.90
9371;DHT22;4725;48.384;8.984;2023-11-19T03:30:06;9.10;99.90
9371;DHT22;4725;48.384;8.984;2023-11-19T03:32:33;9.10;99.90
9371;DHT22;4725;48.384;8.984;2023-11-19T03:35:01;9.10;99.90
9371;DHT22;4725;48.384;8.984;2023-11-19T03:37:31;9.10;99.90
9371;DHT22;4725;48.384;8.984;2023-11-19T03:39:59;9.10;99.90
9371;DHT22;4725;48.384;8.984;2023-11-19T03:42:26;9.10;99.90
9371;DHT22;4725;48.384;8.984;2023-11-19T03:44:53;9.10;99.90
9371;DHT22;4725;48.384;8.984;2023-11-19T03:47:20;9.10;99.90
9371;DHT22;4725;48.384;8.984;2023-11-19T03:49:48;9.10;99.90
9371;DHT22;4725;48.384;8.984;2023-11-19T03:52:15;9.10;99.90
9371;DHT22;4725;48.384;8.984;2023-11-19T03:54:44;9.20;99.90
9371;DHT22;4725;48.384;8.984;2023-11-19T03:57:11;9.20;99.90
9371;DHT22;4725;48.384;8.984;2023-11-19T03:59:38;9.30;99.90
9371;DHT22;4725;48.384;8.984;2023-11-19T04:02:06;9.30;99.90
9371;DHT22;4725;48.384;8.984;2023-11-19T04:04:33;9.30;99.90
9371;DHT22;4725;48.384;8.984;2023-11-19T04:07:00;9.30;99.90
9371;DHT22;4725;48.384;8.984;2023-11-19T04:09:28;9.30;99.90
9371;DHT22;4725;48.384;8.984;2023-11-19T04:11:56;9.30;99.90
9371;DHT22;4725;48.384;8.984;2023-11-19T04:14:23;9.40;99.90
9371;DHT22;4725;48.384;8.984;2023-11-19T04:16:50;9.40;99.90
9371;DHT22;4725;48.384;8.984;2023-11-19T04:19:17;9.40;99.90
9371;DHT22;4725;48.384;8.984;2023-11-19T04:21:44;9.40;99.90
9371;DHT22;4725;48.384;8.984;2023-11-19T04:24:12;9.40;99.90
9371;DHT22;4725;48.384;8.984;2023-11-19T04:26:40;9.40;99.90
9371;DHT22;4725;48.384;8.984;2023-11-19T04:29:11;9.50;99.90
9371;DHT22;4725;48.384;8.984;2023-11-19T04:31:38;9.50;99.90
9371;DHT22;4725;48.384;8.984;2023-11-19T04:34:05;9.50;99.90
9371;DHT22;4725;48.384;8.984;2023-11-19T04:36:32;9.50;99.90
9371;DHT22;4725;48.384;8.984;2023-11-19T04:38:59;9.50;99.90
9371;DHT22;4725;48.384;8.984;2023-11-19T04:41:27;9.40;99.90
9371;DHT22;4725;48.384;8.984;2023-11-19T04:46:22;9.50;99.90
9371;DHT22;4725;48.384;8.984;2023-11-19T04:48:49;9.50;99.90
9371;DHT22;4725;48.384;8.984;2023-11-19T04:51:16;9.50;99.90
9371;DHT22;4725;48.384;8.984;2023-11-19T04:56:11;9.60;99.90
9371;DHT22;4725;48.384;8.984;2023-11-19T04:58:39;9.50;99.90
9371;DHT22;4725;48.384;8.984;2023-11-19T05:01:06;9.60;99.90
9371;DHT22;4725;48.384;8.984;2023-11-19T05:03:34;9.60;99.90
9371;DHT22;4725;48.384;8.984;2023-11-19T05:06:01;9.60;99.90
9371;DHT22;4725;48.384;8.984;2023-11-19T05:08:28;9.60;99.90
9371;DHT22;4725;48.384;8.984;2023-11-19T05:10:55;9.60;99.90
9371;DHT22;4725;48.384;8.984;2023-11-19T05:13:23;9.60;99.90
9371;DHT22;4725;48.384;8.984;2023-11-19T05:15:50;9.60;99.90
9371;DHT22;4725;48.384;8.984;2023-11-19T05:18:17;9.60;99.90
9371;DHT22;4725;48.384;8.984;2023-11-19T05:20:46;9.70;99.90
9371;DHT22;4725;48.384;8.984;2023-11-19T05:23:13;9.70;99.90
9371;DHT22;4725;48.384;8.984;2023-11-19T05:25:39;9.80;99.90
9371;DHT22;4725;48.384;8.984;2023-11-19T05:28:06;9.80;99.90
9371;DHT22;4725;48.384;8.984;2023-11-19T05:30:33;9.80;99.90
9371;DHT22;4725;48.384;8.984;2023-11-19T05:33:00;9.70;99.90
9371;DHT22;4725;48.384;8.984;2023-11-19T05:35:27;9.80;99.90
9371;DHT22;4725;48.384;8.984;2023-11-19T05:37:55;9.80;99.90
9371;DHT22;4725;48.384;8.984;2023-11-19T05:40:22;9.80;99.90
9371;DHT22;4725;48.384;8.984;2023-11-19T05:42:49;9.80;99.90
9371;DHT22;4725;48.384;8.984;2023-11-19T05:45:16;9.80;99.90
9371;DHT22;4725;48.384;8.984;2023-11-19T05:47:43;9.80;99.90
9371;DHT22;4725;48.384;8.984;2023-11-19T05:50:10;9.70;99.90
9371;DHT22;4725;48.384;8.984;2023-11-19T05:52:37;9.80;99.90
9371;DHT22;4725;48.384;8.984;2023-11-19T05:55:06;9.90;99.90
9371;DHT22;4725;48.384;8.984;2023-11-19T05:57:35;9.80;99.90
9371;DHT22;4725;48.384;8.984;2023-11-19T06:00:02;9.80;99.90
9371;DHT22;4725;48.384;8.984;2023-11-19T06:02:32;9.80;99.90
9371;DHT22;4725;48.384;8.984;2023-11-19T06:04:59;9.80;99.90
9371;DHT22;4725;48.384;8.984;2023-11-19T06:07:27;9.80;99.90
9371;DHT22;4725;48.384;8.984;2023-11-19T06:09:54;9.80;99.90
9371;DHT22;4725;48.384;8.984;2023-11-19T06:12:22;9.90;99.90
9371;DHT22;4725;48.384;8.984;2023-11-19T06:14:49;9.90;99.90
9371;DHT22;4725;48.384;8.984;2023-11-19T06:17:16;9.90;99.90
9371;DHT22;4725;48.384;8.984;2023-11-19T06:19:43;9.90;99.90
9371;DHT22;4725;48.384;8.984;2023-11-19T06:22:10;9.90;99.90
9371;DHT22;4725;48.384;8.984;2023-11-19T06:24:37;9.90;99.90
9371;DHT22;4725;48.384;8.984;2023-11-19T06:27:04;9.90;99.90
9371;DHT22;4725;48.384;8.984;2023-11-19T06:29:32;9.90;99.90
9371;DHT22;4725;48.384;8.984;2023-11-19T06:31:59;9.90;99.90
9371;DHT22;4725;48.384;8.984;2023-11-19T06:34:26;9.90;99.90
9371;DHT22;4725;48.384;8.984;2023-11-19T06:36:53;10.00;99.90
9371;DHT22;4725;48.384;8.984;2023-11-19T06:39:20;9.90;99.90
9371;DHT22;4725;48.384;8.984;2023-11-19T06:41:47;9.90;99.90
9371;DHT22;4725;48.384;8.984;2023-11-19T06:44:14;9.90;99.90
9371;DHT22;4725;48.384;8.984;2023-11-19T06:46:42;9.90;99.90
9371;DHT22;4725;48.384;8.984;2023-11-19T06:49:09;9.90;99.90
9371;DHT22;4725;48.384;8.984;2023-11-19T06:51:41;8.20;99.90
9371;DHT22;4725;48.384;8.984;2023-11-19T06:56:35;10.00;99.90
9371;DHT22;4725;48.384;8.984;2023-11-19T06:59:02;10.00;99.90
9371;DHT22;4725;48.384;8.984;2023-11-19T07:01:34;10.00;99.90
9371;DHT22;4725;48.384;8.984;2023-11-19T07:04:03;10.00;99.90
9371;DHT22;4725;48.384;8.984;2023-11-19T07:06:35;10.00;99.90
9371;DHT22;4725;48.384;8.984;2023-11-19T07:09:02;10.00;99.90
9371;DHT22;4725;48.384;8.984;2023-11-19T07:11:35;10.10;99.90
9371;DHT22;4725;48.384;8.984;2023-11-19T07:14:03;10.10;99.90
9371;DHT22;4725;48.384;8.984;2023-11-19T07:16:30;10.10;99.90
9371;DHT22;4725;48.384;8.984;2023-11-19T07:18:57;10.10;99.90
9371;DHT22;4725;48.384;8.984;2023-11-19T07:21:26;10.20;99.90
9371;DHT22;4725;48.384;8.984;2023-11-19T07:23:54;10.20;99.90
9371;DHT22;4725;48.384;8.984;2023-11-19T07:26:22;10.30;99.90
9371;DHT22;4725;48.384;8.984;2023-11-19T07:28:49;10.20;99.90
9371;DHT22;4725;48.384;8.984;2023-11-19T07:31:16;10.30;99.90
9371;DHT22;4725;48.384;8.984;2023-11-19T07:33:44;10.40;99.90
9371;DHT22;4725;48.384;8.984;2023-11-19T07:36:13;10.30;99.90
9371;DHT22;4725;48.384;8.984;2023-11-19T07:38:41;10.40;99.90
9371;DHT22;4725;48.384;8.984;2023-11-19T07:41:08;10.40;99.90
9371;DHT22;4725;48.384;8.984;2023-11-19T07:43:38;10.40;99.90
9371;DHT22;4725;48.384;8.984;2023-11-19T07:46:09;10.50;99.90
9371;DHT22;4725;48.384;8.984;2023-11-19T07:48:37;10.50;99.90
9371;DHT22;4725;48.384;8.984;2023-11-19T07:51:04;10.50;99.90
9371;DHT22;4725;48.384;8.984;2023-11-19T07:53:31;10.50;99.90
9371;DHT22;4725;48.384;8.984;2023-11-19T07:56:00;10.50;99.90
9371;DHT22;4725;48.384;8.984;2023-11-19T07:58:27;10.50;99.90
9371;DHT22;4725;48.384;8.984;2023-11-19T08:00:54;10.50;99.90
9371;DHT22;4725;48.384;8.984;2023-11-19T08:03:23;10.50;99.90
9371;DHT22;4725;48.384;8.984;2023-11-19T08:08:19;10.50;99.90
9371;DHT22;4725;48.384;8.984;2023-11-19T08:10:49;10.50;99.90
9371;DHT22;4725;48.384;8.984;2023-11-19T08:13:18;10.50;99.90
9371;DHT22;4725;48.384;8.984;2023-11-19T08:15:45;10.50;99.90
9371;DHT22;4725;48.384;8.984;2023-11-19T08:18:12;10.40;99.90
9371;DHT22;4725;48.384;8.984;2023-11-19T08:20:39;10.40;99.90
9371;DHT22;4725;48.384;8.984;2023-11-19T08:23:06;10.40;99.90
9371;DHT22;4725;48.384;8.984;2023-11-19T08:28:01;10.40;99.90
9371;DHT22;4725;48.384;8.984;2023-11-19T08:30:30;10.40;99.90
9371;DHT22;4725;48.384;8.984;2023-11-19T08:32:57;10.40;99.90
9371;DHT22;4725;48.384;8.984;2023-11-19T08:35:28;10.40;99.90
9371;DHT22;4725;48.384;8.984;2023-11-19T08:37:55;10.50;99.90
9371;DHT22;4725;48.384;8.984;2023-11-19T08:40:22;10.60;99.90
9371;DHT22;4725;48.384;8.984;2023-11-19T08:42:50;10.60;99.90
9371;DHT22;4725;48.384;8.984;2023-11-19T08:45:17;10.60;99.90
9371;DHT22;4725;48.384;8.984;2023-11-19T08:47:45;10.60;99.90
9371;DHT22;4725;48.384;8.984;2023-11-19T08:50:12;10.70;99.90
9371;DHT22;4725;48.384;8.984;2023-11-19T08:52:39;10.80;99.90
9371;DHT22;4725;48.384;8.984;2023-11-19T08:55:06;10.80;99.90
9371;DHT22;4725;48.384;8.984;2023-11-19T08:57:35;11.00;99.90
9371;DHT22;4725;48.384;8.984;2023-11-19T09:00:03;11.00;99.90
9371;DHT22;4725;48.384;8.984;2023-11-19T09:02:33;10.90;99.90
9371;DHT22;4725;48.384;8.984;2023-11-19T09:05:01;11.00;99.90
9371;DHT22;4725;48.384;8.984;2023-11-19T09:07:28;11.10;99.90
9371;DHT22;4725;48.384;8.984;2023-11-19T09:09:55;11.20;99.90
9371;DHT22;4725;48.384;8.984;2023-11-19T09:12:22;11.20;99.90
9371;DHT22;4725;48.384;8.984;2023-11-19T09:14:50;11.20;99.90
9371;DHT22;4725;48.384;8.984;2023-11-19T09:17:17;11.30;99.90
9371;DHT22;4725;48.384;8.984;2023-11-19T09:19:44;11.40;99.90
9371;DHT22;4725;48.384;8.984;2023-11-19T09:22:12;11.40;99.90
9371;DHT22;4725;48.384;8.984;2023-11-19T09:24:40;11.50;99.90
9371;DHT22;4725;48.384;8.984;2023-11-19T09:27:07;11.50;99.90
9371;DHT22;4725;48.384;8.984;2023-11-19T09:29:33;11.70;99.90
9371;DHT22;4725;48.384;8.984;2023-11-19T09:32:01;11.70;99.90
9371;DHT22;4725;48.384;8.984;2023-11-19T09:34:27;11.80;99.90
9371;DHT22;4725;48.384;8.984;2023-11-19T09:36:54;11.70;99.90
9371;DHT22;4725;48.384;8.984;2023-11-19T09:39:23;12.00;99.90
9371;DHT22;4725;48.384;8.984;2023-11-19T09:41:51;11.90;99.90
9371;DHT22;4725;48.384;8.984;2023-11-19T09:44:18;12.10;99.90
9371;DHT22;4725;48.384;8.984;2023-11-19T09:46:46;12.10;99.90
9371;DHT22;4725;48.384;8.984;2023-11-19T09:49:14;12.20;99.90
9371;DHT22;4725;48.384;8.984;2023-11-19T09:51:42;9.40;99.90
9371;DHT22;4725;48.384;8.984;2023-11-19T09:54:09;12.50;99.90
9371;DHT22;4725;48.384;8.984;2023-11-19T09:56:40;12.50;99.90
9371;DHT22;4725;48.384;8.984;2023-11-19T09:59:08;12.70;99.90
9371;DHT22;4725;48.384;8.984;2023-11-19T10:01:36;12.90;99.90
9371;DHT22;4725;48.384;8.984;2023-11-19T10:04:04;12.80;99.90
9371;DHT22;4725;48.384;8.984;2023-11-19T10:06:31;12.80;99.90
9371;DHT22;4725;48.384;8.984;2023-11-19T10:08:58;13.00;99.90
9371;DHT22;4725;48.384;8.984;2023-11-19T10:11:26;13.10;99.90
9371;DHT22;4725;48.384;8.984;2023-11-19T10:13:54;13.20;99.90
9371;DHT22;4725;48.384;8.984;2023-11-19T10:16:28;13.30;99.90
9371;DHT22;4725;48.384;8.984;2023-11-19T10:18:55;13.30;99.90
9371;DHT22;4725;48.384;8.984;2023-11-19T10:21:22;13.10;99.90
9371;DHT22;4725;48.384;8.984;2023-11-19T10:23:50;13.10;99.90
9371;DHT22;4725;48.384;8.984;2023-11-19T10:26:18;13.20;99.90
9371;DHT22;4725;48.384;8.984;2023-11-19T10:28:46;13.00;99.90
9371;DHT22;4725;48.384;8.984;2023-11-19T10:31:15;12.80;99.90
9371;DHT22;4725;48.384;8.984;2023-11-19T10:33:42;12.80;99.90
9371;DHT22;4725;48.384;8.984;2023-11-19T10:36:10;12.80;99.90
9371;DHT22;4725;48.384;8.984;2023-11-19T10:38:39;12.80;99.90
9371;DHT22;4725;48.384;8.984;2023-11-19T10:41:06;12.90;99.90
9371;DHT22;4725;48.384;8.984;2023-11-19T10:43:43;13.00;99.90
9371;DHT22;4725;48.384;8.984;2023-11-19T10:46:11;12.90;99.90
9371;DHT22;4725;48.384;8.984;2023-11-19T10:48:40;12.80;99.90
9371;DHT22;4725;48.384;8.984;2023-11-19T10:51:07;12.70;99.90
9371;DHT22;4725;48.384;8.984;2023-11-19T10:53:38;12.50;99.90
9371;DHT22;4725;48.384;8.984;2023-11-19T10:56:09;12.50;99.90
9371;DHT22;4725;48.384;8.984;2023-11-19T10:58:37;12.50;99.90
9371;DHT22;4725;48.384;8.984;2023-11-19T11:01:13;12.40;99.90
9371;DHT22;4725;48.384;8.984;2023-11-19T11:03:44;12.50;99.90
9371;DHT22;4725;48.384;8.984;2023-11-19T11:06:13;12.50;99.90
9371;DHT22;4725;48.384;8.984;2023-11-19T11:08:40;12.50;99.90
9371;DHT22;4725;48.384;8.984;2023-11-19T11:11:08;12.50;99.90
9371;DHT22;4725;48.384;8.984;2023-11-19T11:13:37;12.60;99.90
9371;DHT22;4725;48.384;8.984;2023-11-19T11:16:06;12.50;99.90
9371;DHT22;4725;48.384;8.984;2023-11-19T11:18:34;12.50;99.90
9371;DHT22;4725;48.384;8.984;2023-11-19T11:21:04;12.60;99.90
9371;DHT22;4725;48.384;8.984;2023-11-19T11:26:41;12.60;99.90
9371;DHT22;4725;48.384;8.984;2023-11-19T11:29:19;12.60;99.90
9371;DHT22;4725;48.384;8.984;2023-11-19T11:31:54;12.70;99.90
9371;DHT22;4725;48.384;8.984;2023-11-19T11:34:44;12.70;99.90
9371;DHT22;4725;48.384;8.984;2023-11-19T11:37:20;12.60;99.90
9371;DHT22;4725;48.384;8.984;2023-11-19T11:39:51;12.70;99.90
9371;DHT22;4725;48.384;8.984;2023-11-19T11:42:35;12.70;99.90
9371;DHT22;4725;48.384;8.984;2023-11-19T11:45:03;12.80;99.90
9371;DHT22;4725;48.384;8.984;2023-11-19T11:48:08;13.10;99.90
9371;DHT22;4725;48.384;8.984;2023-11-19T11:50:37;14.30;99.90
9371;DHT22;4725;48.384;8.984;2023-11-19T11:53:16;15.00;99.90
9371;DHT22;4725;48.384;8.984;2023-11-19T11:55:55;15.10;99.90
9371;DHT22;4725;48.384;8.984;2023-11-19T11:58:29;15.30;99.90
9371;DHT22;4725;48.384;8.984;2023-11-19T12:00:58;14.60;99.90
9371;DHT22;4725;48.384;8.984;2023-11-19T12:03:28;14.40;99.90
9371;DHT22;4725;48.384;8.984;2023-11-19T12:05:55;13.90;99.90
9371;DHT22;4725;48.384;8.984;2023-11-19T12:08:27;13.80;99.90
9371;DHT22;4725;48.384;8.984;2023-11-19T12:10:56;13.60;99.90
9371;DHT22;4725;48.384;8.984;2023-11-19T12:13:52;13.70;99.90
9371;DHT22;4725;48.384;8.984;2023-11-19T12:16:21;13.80;99.90
9371;DHT22;4725;48.384;8.984;2023-11-19T12:18:48;13.80;99.90
9371;DHT22;4725;48.384;8.984;2023-11-19T12:21:28;13.90;99.90
9371;DHT22;4725;48.384;8.984;2023-11-19T12:23:58;14.00;99.90
9371;DHT22;4725;48.384;8.984;2023-11-19T12:26:37;13.90;99.90
9371;DHT22;4725;48.384;8.984;2023-11-19T12:29:04;13.70;99.90
9371;DHT22;4725;48.384;8.984;2023-11-19T12:31:32;13.90;99.90
9371;DHT22;4725;48.384;8.984;2023-11-19T12:34:05;13.90;99.90
9371;DHT22;4725;48.384;8.984;2023-11-19T12:36:33;13.90;99.90
9371;DHT22;4725;48.384;8.984;2023-11-19T12:39:02;13.90;99.90
9371;DHT22;4725;48.384;8.984;2023-11-19T12:44:09;14.00;99.90
9371;DHT22;4725;48.384;8.984;2023-11-19T12:46:36;14.10;99.90
9371;DHT22;4725;48.384;8.984;2023-11-19T12:49:03;14.00;99.90
9371;DHT22;4725;48.384;8.984;2023-11-19T12:51:31;13.90;99.90
9371;DHT22;4725;48.384;8.984;2023-11-19T12:53:58;13.80;99.90
9371;DHT22;4725;48.384;8.984;2023-11-19T12:56:27;13.90;99.90
9371;DHT22;4725;48.384;8.984;2023-11-19T12:58:55;13.90;99.90
9371;DHT22;4725;48.384;8.984;2023-11-19T13:01:22;14.10;99.90
9371;DHT22;4725;48.384;8.984;2023-11-19T13:03:49;14.00;99.90
9371;DHT22;4725;48.384;8.984;2023-11-19T13:06:17;13.90;99.90
9371;DHT22;4725;48.384;8.984;2023-11-19T13:08:47;13.80;99.90
9371;DHT22;4725;48.384;8.984;2023-11-19T13:11:32;13.70;99.90
9371;DHT22;4725;48.384;8.984;2023-11-19T13:13:59;13.80;99.90
9371;DHT22;4725;48.384;8.984;2023-11-19T13:16:27;13.80;99.90
9371;DHT22;4725;48.384;8.984;2023-11-19T13:18:54;13.90;99.90
9371;DHT22;4725;48.384;8.984;2023-11-19T13:21:22;13.80;99.90
9371;DHT22;4725;48.384;8.984;2023-11-19T13:23:49;13.70;99.90
9371;DHT22;4725;48.384;8.984;2023-11-19T13:26:16;13.70;99.90
9371;DHT22;4725;48.384;8.984;2023-11-19T13:28:45;13.80;99.90
9371;DHT22;4725;48.384;8.984;2023-11-19T13:31:12;14.00;99.90
9371;DHT22;4725;48.384;8.984;2023-11-19T13:33:39;13.90;99.90
9371;DHT22;4725;48.384;8.984;2023-11-19T13:36:07;13.90;99.90
9371;DHT22;4725;48.384;8.984;2023-11-19T13:38:35;14.30;99.90
9371;DHT22;4725;48.384;8.984;2023-11-19T13:41:03;14.30;99.90
9371;DHT22;4725;48.384;8.984;2023-11-19T13:43:31;14.30;99.90
9371;DHT22;4725;48.384;8.984;2023-11-19T13:45:59;14.40;99.90
9371;DHT22;4725;48.384;8.984;2023-11-19T13:48:26;14.50;99.90
9371;DHT22;4725;48.384;8.984;2023-11-19T13:50:54;14.40;99.90
9371;DHT22;4725;48.384;8.984;2023-11-19T13:53:21;14.30;99.90
9371;DHT22;4725;48.384;8.984;2023-11-19T13:55:49;14.30;99.90
9371;DHT22;4725;48.384;8.984;2023-11-19T13:58:16;14.50;99.90
9371;DHT22;4725;48.384;8.984;2023-11-19T14:00:43;15.00;99.90
9371;DHT22;4725;48.384;8.984;2023-11-19T14:03:11;14.80;99.90
9371;DHT22;4725;48.384;8.984;2023-11-19T14:05:38;14.60;99.90
9371;DHT22;4725;48.384;8.984;2023-11-19T14:08:06;14.60;99.90
9371;DHT22;4725;48.384;8.984;2023-11-19T14:10:37;14.60;99.90
9371;DHT22;4725;48.384;8.984;2023-11-19T14:13:06;14.60;99.90
9371;DHT22;4725;48.384;8.984;2023-11-19T14:15:33;14.60;99.90
9371;DHT22;4725;48.384;8.984;2023-11-19T14:17:58;14.50;99.90
9371;DHT22;4725;48.384;8.984;2023-11-19T14:20:27;14.60;99.90
9371;DHT22;4725;48.384;8.984;2023-11-19T14:22:54;15.20;99.90
9371;DHT22;4725;48.384;8.984;2023-11-19T14:25:20;15.30;99.90
9371;DHT22;4725;48.384;8.984;2023-11-19T14:27:49;15.40;99.90
9371;DHT22;4725;48.384;8.984;2023-11-19T14:30:16;14.70;99.90
9371;DHT22;4725;48.384;8.984;2023-11-19T14:32:43;14.60;99.90
9371;DHT22;4725;48.384;8.984;2023-11-19T14:35:11;14.20;99.90
9371;DHT22;4725;48.384;8.984;2023-11-19T14:37:40;13.90;99.90
9371;DHT22;4725;48.384;8.984;2023-11-19T14:40:07;13.60;99.90
9371;DHT22;4725;48.384;8.984;2023-11-19T14:42:36;13.60;99.90
9371;DHT22;4725;48.384;8.984;2023-11-19T14:45:05;13.40;99.90
9371;DHT22;4725;48.384;8.984;2023-11-19T14:47:32;13.30;99.90
9371;DHT22;4725;48.384;8.984;2023-11-19T14:49:59;13.00;99.90
9371;DHT22;4725;48.384;8.984;2023-11-19T14:52:26;13.00;99.90
9371;DHT22;4725;48.384;8.984;2023-11-19T14:54:55;12.90;99.90
9371;DHT22;4725;48.384;8.984;2023-11-19T14:57:22;12.80;99.90
9371;DHT22;4725;48.384;8.984;2023-11-19T14:59:49;12.60;99.90
9371;DHT22;4725;48.384;8.984;2023-11-19T15:02:15;12.60;99.90
9371;DHT22;4725;48.384;8.984;2023-11-19T15:04:42;12.50;99.90
9371;DHT22;4725;48.384;8.984;2023-11-19T15:07:09;12.40;99.90
9371;DHT22;4725;48.384;8.984;2023-11-19T15:09:37;12.20;99.90
9371;DHT22;4725;48.384;8.984;2023-11-19T15:14:34;12.10;99.90
9371;DHT22;4725;48.384;8.984;2023-11-19T15:17:01;12.00;99.90
9371;DHT22;4725;48.384;8.984;2023-11-19T15:19:28;11.90;99.90
9371;DHT22;4725;48.384;8.984;2023-11-19T15:21:55;11.90;99.90
9371;DHT22;4725;48.384;8.984;2023-11-19T15:24:22;11.90;99.90
9371;DHT22;4725;48.384;8.984;2023-11-19T15:26:50;11.90;99.90
9371;DHT22;4725;48.384;8.984;2023-11-19T15:29:19;11.90;99.90
9371;DHT22;4725;48.384;8.984;2023-11-19T15:36:40;11.80;99.90
9371;DHT22;4725;48.384;8.984;2023-11-19T15:39:07;11.60;99.90
9371;DHT22;4725;48.384;8.984;2023-11-19T15:41:34;11.50;99.90
9371;DHT22;4725;48.384;8.984;2023-11-19T15:44:01;11.40;99.90
9371;DHT22;4725;48.384;8.984;2023-11-19T15:46:30;11.20;99.90
9371;DHT22;4725;48.384;8.984;2023-11-19T15:48:57;11.00;99.90
9371;DHT22;4725;48.384;8.984;2023-11-19T15:51:24;11.00;99.90
9371;DHT22;4725;48.384;8.984;2023-11-19T15:53:51;10.90;99.90
9371;DHT22;4725;48.384;8.984;2023-11-19T15:56:18;10.90;99.90
9371;DHT22;4725;48.384;8.984;2023-11-19T15:58:45;10.70;99.90
9371;DHT22;4725;48.384;8.984;2023-11-19T16:01:12;10.40;99.90
9371;DHT22;4725;48.384;8.984;2023-11-19T16:03:40;10.40;99.90
9371;DHT22;4725;48.384;8.984;2023-11-19T16:06:08;10.30;99.90
9371;DHT22;4725;48.384;8.984;2023-11-19T16:08:36;10.30;99.90
9371;DHT22;4725;48.384;8.984;2023-11-19T16:13:31;10.30;99.90
9371;DHT22;4725;48.384;8.984;2023-11-19T16:15:58;10.30;99.90
9371;DHT22;4725;48.384;8.984;2023-11-19T16:18:25;10.40;99.90
9371;DHT22;4725;48.384;8.984;2023-11-19T16:20:55;10.40;99.90
9371;DHT22;4725;48.384;8.984;2023-11-19T16:23:22;10.30;99.90
9371;DHT22;4725;48.384;8.984;2023-11-19T16:25:49;10.30;99.90
9371;DHT22;4725;48.384;8.984;2023-11-19T16:28:16;10.20;99.90
9371;DHT22;4725;48.384;8.984;2023-11-19T16:30:44;10.30;99.90
9371;DHT22;4725;48.384;8.984;2023-11-19T16:33:11;10.20;99.90
9371;DHT22;4725;48.384;8.984;2023-11-19T16:35:38;10.00;99.90
9371;DHT22;4725;48.384;8.984;2023-11-19T16:38:06;9.90;99.90
9371;DHT22;4725;48.384;8.984;2023-11-19T16:40:33;9.60;99.90
9371;DHT22;4725;48.384;8.984;2023-11-19T16:43:04;9.60;99.90